Time;durP1;ratioP1;P1;durP2;ratioP2;P2;SDS_P1;SDS_P2;PMS_P1;PMS_P2;Temp;Humidity;BMP_temperature;BMP_pressure;BME280_temperature;BME280_humidity;BME280_pressure;Samples;Min_cycle;Max_cycle;Signal;HPM_P1;HPM_P2
2021/03/11 00:00:14;;;;;;;2.53;2.20;;;23.00;26.30;;;;;;5050644;28;20666;-59
2021/03/11 00:02:40;;;;;;;2.07;1.93;;;23.00;26.20;;;;;;5048540;28;20213;-59
2021/03/11 00:05:06;;;;;;;2.50;2.30;;;22.90;26.20;;;;;;5050165;28;20215;-59
2021/03/11 00:07:32;;;;;;;2.33;2.13;;;23.00;26.20;;;;;;5050603;28;20227;-59
2021/03/11 00:09:58;;;;;;;2.10;1.90;;;22.90;26.20;;;;;;5051039;28;20246;-59
2021/03/11 00:12:24;;;;;;;2.37;1.87;;;23.00;26.30;;;;;;5050060;28;20216;-59
2021/03/11 00:14:50;;;;;;;2.10;1.90;;;23.00;26.30;;;;;;5051287;28;20224;-59
2021/03/11 00:17:16;;;;;;;3.10;2.07;;;23.00;26.30;;;;;;5050033;28;20228;-59
2021/03/11 00:19:43;;;;;;;3.37;2.20;;;23.00;26.30;;;;;;5051105;28;20208;-59
2021/03/11 00:22:09;;;;;;;2.20;1.83;;;23.00;26.30;;;;;;5048198;28;20211;-59
2021/03/11 00:24:35;;;;;;;2.23;2.00;;;23.00;26.30;;;;;;5049491;28;20204;-59
2021/03/11 00:27:01;;;;;;;2.60;1.83;;;23.00;26.30;;;;;;5050867;28;20228;-59
2021/03/11 00:29:28;;;;;;;1.70;1.60;;;23.00;26.30;;;;;;5050450;28;20203;-59
2021/03/11 00:31:54;;;;;;;2.23;1.97;;;23.00;26.30;;;;;;5050293;28;20198;-59
2021/03/11 00:34:20;;;;;;;2.30;1.90;;;23.00;26.50;;;;;;5049009;28;20722;-59
2021/03/11 00:36:46;;;;;;;1.90;1.80;;;23.00;26.30;;;;;;5050380;28;20240;-59
2021/03/11 00:39:12;;;;;;;2.10;1.90;;;23.00;26.30;;;;;;5050983;28;20221;-59
2021/03/11 00:41:38;;;;;;;2.00;1.73;;;23.00;26.30;;;;;;5049426;28;20205;-59
2021/03/11 00:44:04;;;;;;;2.17;1.70;;;23.00;26.30;;;;;;5049529;28;20205;-59
2021/03/11 00:46:30;;;;;;;2.43;2.20;;;23.00;26.30;;;;;;5050070;28;20865;-59
2021/03/11 00:48:56;;;;;;;3.20;1.80;;;23.00;26.30;;;;;;5049291;28;20534;-59
2021/03/11 00:51:22;;;;;;;2.13;1.73;;;22.90;26.20;;;;;;5051196;28;20208;-59
2021/03/11 00:53:48;;;;;;;3.47;1.87;;;23.00;26.30;;;;;;5049224;28;20204;-59
2021/03/11 00:56:14;;;;;;;2.40;1.80;;;23.00;26.30;;;;;;5050683;28;20243;-59
2021/03/11 00:58:40;;;;;;;1.83;1.67;;;23.00;26.30;;;;;;5050449;28;20201;-59
2021/03/11 01:01:06;;;;;;;2.63;1.87;;;23.00;26.30;;;;;;5050241;28;20208;-59
2021/03/11 01:03:31;;;;;;;2.07;1.87;;;23.00;26.30;;;;;;5049536;28;20212;-59
2021/03/11 01:05:57;;;;;;;1.90;1.80;;;23.00;26.30;;;;;;5050074;28;20224;-59
2021/03/11 01:08:23;;;;;;;3.73;1.70;;;23.00;26.30;;;;;;5049705;28;20556;-59
2021/03/11 01:10:49;;;;;;;2.30;1.80;;;23.00;26.30;;;;;;5051093;28;20204;-59
2021/03/11 01:13:15;;;;;;;1.90;1.80;;;23.00;26.30;;;;;;5048989;28;20665;-59
2021/03/11 01:15:41;;;;;;;1.90;1.70;;;23.00;26.30;;;;;;5049734;28;20240;-59
2021/03/11 01:18:07;;;;;;;1.80;1.70;;;22.90;26.30;;;;;;5050189;28;20204;-59
2021/03/11 01:20:33;;;;;;;2.27;1.87;;;23.00;26.40;;;;;;5050504;28;20594;-59
2021/03/11 01:22:59;;;;;;;2.23;1.90;;;22.90;26.30;;;;;;5048859;28;20197;-59
2021/03/11 01:25:25;;;;;;;1.67;1.57;;;23.00;26.30;;;;;;5049441;28;20597;-59
2021/03/11 01:27:51;;;;;;;2.00;1.80;;;23.00;26.30;;;;;;5050503;28;20200;-59
2021/03/11 01:30:17;;;;;;;2.30;1.70;;;22.90;26.30;;;;;;5053196;28;20743;-59
2021/03/11 01:32:43;;;;;;;1.70;1.60;;;23.00;26.30;;;;;;5051680;28;20246;-59
2021/03/11 01:35:09;;;;;;;1.80;1.60;;;23.00;26.30;;;;;;5052850;28;20247;-59
2021/03/11 01:37:35;;;;;;;2.23;1.90;;;23.00;26.30;;;;;;5054501;28;20576;-59
2021/03/11 01:40:01;;;;;;;2.43;1.70;;;23.00;26.30;;;;;;5052868;28;20407;-58
2021/03/11 01:42:27;;;;;;;1.70;1.60;;;23.00;26.30;;;;;;5053660;28;20225;-59
2021/03/11 01:44:53;;;;;;;1.97;1.60;;;23.00;26.30;;;;;;5050822;28;20209;-59
2021/03/11 01:47:19;;;;;;;2.00;1.90;;;23.00;26.40;;;;;;5053551;28;20197;-59
2021/03/11 01:49:45;;;;;;;1.63;1.50;;;23.00;26.30;;;;;;5053546;28;20200;-59
2021/03/11 01:52:11;;;;;;;1.70;1.60;;;23.00;26.40;;;;;;5052639;28;20690;-59
2021/03/11 01:54:37;;;;;;;1.80;1.70;;;23.00;26.30;;;;;;5052844;28;20205;-59
2021/03/11 01:57:03;;;;;;;2.53;1.60;;;23.00;26.30;;;;;;5054227;28;20207;-59
2021/03/11 01:59:29;;;;;;;1.73;1.63;;;23.00;26.40;;;;;;5048505;28;20712;-59
2021/03/11 02:01:55;;;;;;;3.07;1.67;;;23.00;26.30;;;;;;5049933;28;20326;-59
2021/03/11 02:04:21;;;;;;;1.67;1.57;;;23.00;26.40;;;;;;5045471;28;20660;-59
2021/03/11 02:06:47;;;;;;;1.87;1.60;;;23.00;26.30;;;;;;5051813;28;20251;-59
2021/03/11 02:09:13;;;;;;;1.57;1.47;;;23.00;26.40;;;;;;5054438;28;20197;-59
2021/03/11 02:11:38;;;;;;;1.80;1.70;;;23.00;26.40;;;;;;5052419;28;20602;-59
2021/03/11 02:14:04;;;;;;;1.70;1.60;;;23.00;26.40;;;;;;5054165;28;20213;-59
2021/03/11 02:16:30;;;;;;;2.03;1.60;;;23.00;26.40;;;;;;5052084;28;20243;-59
2021/03/11 02:18:56;;;;;;;1.70;1.30;;;23.00;26.40;;;;;;5052872;28;20250;-59
2021/03/11 02:21:22;;;;;;;2.17;1.60;;;23.00;26.40;;;;;;5053374;28;20244;-59
2021/03/11 02:23:48;;;;;;;2.23;1.97;;;23.00;26.40;;;;;;5052361;28;20207;-59
2021/03/11 02:26:14;;;;;;;1.70;1.60;;;23.00;26.40;;;;;;5052583;28;20229;-59
2021/03/11 02:28:40;;;;;;;2.37;1.90;;;23.00;26.40;;;;;;5052419;28;20197;-59
2021/03/11 02:31:07;;;;;;;2.03;1.83;;;23.00;26.40;;;;;;5051942;28;20201;-59
2021/03/11 02:33:33;;;;;;;1.70;1.60;;;23.00;26.40;;;;;;5052013;28;20211;-59
2021/03/11 02:35:59;;;;;;;1.77;1.67;;;23.00;26.40;;;;;;5051570;28;20232;-59
2021/03/11 02:38:25;;;;;;;1.70;1.40;;;23.00;26.40;;;;;;5051386;28;20675;-60
2021/03/11 02:40:51;;;;;;;1.40;1.30;;;23.00;26.40;;;;;;5053180;28;20231;-60
2021/03/11 02:43:17;;;;;;;2.43;1.50;;;23.00;26.40;;;;;;5052139;28;20573;-60
2021/03/11 02:45:43;;;;;;;1.53;1.43;;;23.00;26.40;;;;;;5051339;28;20277;-59
2021/03/11 02:48:09;;;;;;;3.03;1.60;;;23.00;26.40;;;;;;5053233;28;20216;-59
2021/03/11 02:50:35;;;;;;;2.00;1.67;;;23.00;26.90;;;;;;5052343;28;20224;-61
2021/03/11 02:53:01;;;;;;;2.20;1.60;;;23.00;26.90;;;;;;5052368;28;20212;-60
2021/03/11 02:55:26;;;;;;;1.70;1.60;;;23.00;26.70;;;;;;5050989;28;20711;-60
2021/03/11 02:57:52;;;;;;;2.00;1.57;;;23.00;26.60;;;;;;5052374;28;20245;-60
2021/03/11 03:00:18;;;;;;;1.50;1.40;;;23.00;26.60;;;;;;5052103;28;20203;-60
2021/03/11 03:02:44;;;;;;;1.60;1.40;;;23.00;26.50;;;;;;5052498;28;20584;-60
2021/03/11 03:05:10;;;;;;;2.20;1.60;;;23.00;26.50;;;;;;5051951;28;20240;-60
2021/03/11 03:07:37;;;;;;;1.90;1.70;;;23.00;26.50;;;;;;5050723;28;20201;-60
2021/03/11 03:10:02;;;;;;;1.80;1.40;;;22.90;26.40;;;;;;5051973;28;20207;-60
2021/03/11 03:12:28;;;;;;;1.63;1.50;;;22.90;27.00;;;;;;5051179;28;20906;-60
2021/03/11 03:14:54;;;;;;;1.70;1.40;;;23.00;26.50;;;;;;5052403;28;20224;-60
2021/03/11 03:17:20;;;;;;;2.40;1.53;;;23.00;26.60;;;;;;5051380;28;20202;-60
2021/03/11 03:19:46;;;;;;;1.57;1.47;;;23.00;26.50;;;;;;5053074;28;20270;-60
2021/03/11 03:22:12;;;;;;;1.80;1.70;;;23.00;26.50;;;;;;5050818;28;20213;-60
2021/03/11 03:24:38;;;;;;;1.50;1.40;;;23.00;26.50;;;;;;5052345;28;20558;-60
2021/03/11 03:27:04;;;;;;;2.00;1.40;;;23.00;26.50;;;;;;5051006;28;20208;-61
2021/03/11 03:29:30;;;;;;;2.40;1.50;;;23.00;26.50;;;;;;5050934;28;20208;-60
2021/03/11 03:31:56;;;;;;;1.50;1.40;;;23.00;26.50;;;;;;5050949;28;20223;-60
2021/03/11 03:34:22;;;;;;;1.50;1.40;;;23.00;26.50;;;;;;5052361;28;20209;-60
2021/03/11 03:36:48;;;;;;;2.43;1.80;;;23.00;26.40;;;;;;5049388;28;20240;-60
2021/03/11 03:39:14;;;;;;;1.73;1.40;;;23.00;26.40;;;;;;5051898;28;20219;-60
2021/03/11 03:41:40;;;;;;;2.17;1.50;;;23.00;26.50;;;;;;5050764;28;20553;-61
2021/03/11 03:44:06;;;;;;;1.80;1.40;;;23.00;27.00;;;;;;5052426;28;20205;-61
2021/03/11 03:46:32;;;;;;;3.73;1.70;;;23.00;26.90;;;;;;5050835;28;20692;-61
2021/03/11 03:48:58;;;;;;;1.90;1.60;;;23.00;26.80;;;;;;5050528;28;20208;-61
2021/03/11 03:51:24;;;;;;;1.53;1.43;;;23.00;26.70;;;;;;5050820;28;20204;-61
2021/03/11 03:53:50;;;;;;;2.00;1.63;;;23.00;26.80;;;;;;5048960;28;20200;-61
2021/03/11 03:56:16;;;;;;;1.53;1.30;;;23.00;26.70;;;;;;5050994;28;20239;-61
2021/03/11 03:58:42;;;;;;;1.70;1.60;;;23.00;26.80;;;;;;5050705;28;20208;-61
2021/03/11 04:01:08;;;;;;;1.53;1.40;;;23.00;26.80;;;;;;5051160;28;20874;-61
2021/03/11 04:03:34;;;;;;;2.70;1.70;;;23.00;26.80;;;;;;5048423;28;20204;-61
2021/03/11 04:06:00;;;;;;;2.17;1.60;;;23.00;26.80;;;;;;5033924;28;20239;-61
2021/03/11 04:08:26;;;;;;;2.83;1.80;;;23.00;26.80;;;;;;5050636;28;20563;-61
2021/03/11 04:10:52;;;;;;;1.57;1.47;;;23.00;26.80;;;;;;5048482;28;20208;-61
2021/03/11 04:13:18;;;;;;;1.50;1.40;;;23.00;26.80;;;;;;5049551;28;20215;-61
2021/03/11 04:15:44;;;;;;;1.63;1.40;;;23.00;26.80;;;;;;5035952;28;20228;-61
2021/03/11 04:18:10;;;;;;;1.60;1.50;;;23.00;26.80;;;;;;5050401;28;20205;-61
2021/03/11 04:20:36;;;;;;;2.83;1.40;;;23.00;26.80;;;;;;5050455;28;20571;-60
2021/03/11 04:23:02;;;;;;;2.57;1.50;;;23.00;26.70;;;;;;5050534;28;20206;-61
2021/03/11 04:25:28;;;;;;;1.60;1.47;;;23.00;26.70;;;;;;5051114;28;20216;-61
2021/03/11 04:27:54;;;;;;;2.27;1.30;;;23.00;26.70;;;;;;5049082;28;20204;-61
2021/03/11 04:30:20;;;;;;;1.53;1.43;;;23.00;26.70;;;;;;5050481;28;20196;-61
2021/03/11 04:32:45;;;;;;;1.73;1.63;;;23.00;26.70;;;;;;5049830;28;20683;-62
2021/03/11 04:35:11;;;;;;;1.70;1.60;;;23.00;26.70;;;;;;5050866;28;20314;-61
2021/03/11 04:37:37;;;;;;;1.40;1.30;;;23.00;26.70;;;;;;5050160;28;20213;-61
2021/03/11 04:40:03;;;;;;;3.20;1.50;;;23.00;26.70;;;;;;5051440;28;20665;-61
2021/03/11 04:42:29;;;;;;;2.23;1.73;;;23.00;26.70;;;;;;5049915;28;20200;-61
2021/03/11 04:44:55;;;;;;;1.87;1.60;;;23.00;26.80;;;;;;5050759;28;20692;-61
2021/03/11 04:47:21;;;;;;;3.70;1.77;;;23.00;26.80;;;;;;5049962;28;20231;-61
2021/03/11 04:49:47;;;;;;;2.33;1.60;;;23.00;26.70;;;;;;5049984;28;20204;-61
2021/03/11 04:52:13;;;;;;;2.27;1.40;;;23.00;26.80;;;;;;5049817;28;20662;-61
2021/03/11 04:54:39;;;;;;;1.80;1.40;;;23.00;26.80;;;;;;5051069;28;20228;-61
2021/03/11 04:57:05;;;;;;;2.60;1.53;;;23.00;26.80;;;;;;5049967;28;20236;-62
2021/03/11 04:59:31;;;;;;;2.57;1.50;;;23.00;27.30;;;;;;5047246;28;20205;-61
2021/03/11 05:01:57;;;;;;;1.50;1.40;;;23.00;26.80;;;;;;5049481;28;20212;-61
2021/03/11 05:04:23;;;;;;;1.57;1.47;;;23.00;26.80;;;;;;5051457;28;20224;-60
2021/03/11 05:06:49;;;;;;;1.50;1.40;;;23.00;26.70;;;;;;5054892;28;20253;-61
2021/03/11 05:09:15;;;;;;;1.60;1.50;;;23.00;26.70;;;;;;5054425;28;20204;-61
2021/03/11 05:11:41;;;;;;;1.40;1.30;;;23.00;26.80;;;;;;5053314;28;20654;-60
2021/03/11 05:14:07;;;;;;;2.63;1.37;;;23.00;26.70;;;;;;5053962;28;20228;-61
2021/03/11 05:16:33;;;;;;;1.47;1.33;;;23.00;26.70;;;;;;5054687;28;20231;-60
2021/03/11 05:18:59;;;;;;;1.70;1.30;;;23.00;26.70;;;;;;5053726;28;20201;-60
2021/03/11 05:21:25;;;;;;;1.37;1.27;;;23.00;26.70;;;;;;5055105;28;20204;-61
2021/03/11 05:23:51;;;;;;;2.17;1.40;;;23.00;26.70;;;;;;5052381;28;20196;-61
2021/03/11 05:26:17;;;;;;;1.93;1.50;;;23.00;26.70;;;;;;5054750;28;20274;-61
2021/03/11 05:28:43;;;;;;;1.77;1.30;;;23.00;26.70;;;;;;5053602;28;20644;-61
2021/03/11 05:31:09;;;;;;;2.00;1.53;;;23.00;26.70;;;;;;5052859;28;20196;-60
2021/03/11 05:33:35;;;;;;;1.30;1.20;;;23.00;26.70;;;;;;5053533;28;20201;-61
2021/03/11 05:36:01;;;;;;;1.30;1.20;;;23.00;26.70;;;;;;5054301;28;20658;-61
2021/03/11 05:38:27;;;;;;;1.20;1.10;;;23.00;26.70;;;;;;5060638;23;20232;-49
2021/03/11 05:40:53;;;;;;;1.83;1.20;;;23.00;26.80;;;;;;5033773;28;20194;-48
2021/03/11 05:43:19;;;;;;;1.50;1.40;;;23.00;26.70;;;;;;5032220;28;20256;-45
2021/03/11 05:45:45;;;;;;;1.73;1.40;;;23.00;26.80;;;;;;5051824;28;20593;-49
2021/03/11 05:48:11;;;;;;;1.77;1.67;;;23.00;26.80;;;;;;5052724;28;20210;-47
2021/03/11 05:50:37;;;;;;;1.40;1.30;;;23.00;26.80;;;;;;5053956;28;20216;-52
2021/03/11 05:53:03;;;;;;;1.80;1.40;;;23.00;26.70;;;;;;5053520;28;20201;-50
2021/03/11 05:55:28;;;;;;;2.83;1.40;;;23.00;26.70;;;;;;5053250;28;20245;-50
2021/03/11 05:57:56;;;;;;;1.50;1.30;;;23.00;26.70;;;;;;5053958;28;20653;-48
2021/03/11 06:00:22;;;;;;;1.37;1.27;;;23.00;26.70;;;;;;5051536;28;20255;-49
2021/03/11 06:02:48;;;;;;;1.77;1.50;;;23.00;26.70;;;;;;5053070;28;20207;-43
2021/03/11 06:05:14;;;;;;;1.53;1.30;;;23.00;26.70;;;;;;5043881;28;20236;-44
2021/03/11 06:07:40;;;;;;;1.27;1.17;;;23.00;26.60;;;;;;5052722;28;20212;-47
2021/03/11 06:10:06;;;;;;;1.50;1.40;;;23.00;26.70;;;;;;5052063;28;20209;-45
2021/03/11 06:12:32;;;;;;;5.63;1.30;;;23.00;26.60;;;;;;5052862;28;20643;-46
2021/03/11 06:14:58;;;;;;;1.50;1.37;;;23.00;26.70;;;;;;5052522;28;20229;-43
2021/03/11 06:17:24;;;;;;;1.10;1.00;;;23.00;26.70;;;;;;5053049;28;20210;-48
2021/03/11 06:19:50;;;;;;;2.40;1.60;;;23.00;26.60;;;;;;5051165;28;20201;-46
2021/03/11 06:22:16;;;;;;;1.17;1.07;;;23.00;26.70;;;;;;5048403;28;20252;-44
2021/03/11 06:24:42;;;;;;;1.40;1.30;;;23.00;26.70;;;;;;5051234;28;20227;-46
2021/03/11 06:27:08;;;;;;;2.47;1.63;;;23.00;26.70;;;;;;5052356;28;20215;-45
2021/03/11 06:29:34;;;;;;;1.33;1.20;;;23.00;26.70;;;;;;5052624;28;20197;-44
2021/03/11 06:32:00;;;;;;;1.40;1.30;;;23.00;26.70;;;;;;5050132;28;20574;-45
2021/03/11 06:34:27;;;;;;;1.47;1.30;;;23.00;26.70;;;;;;5052526;28;20237;-46
2021/03/11 06:36:53;;;;;;;1.30;1.20;;;23.00;26.70;;;;;;5052230;28;20361;-44
2021/03/11 06:39:19;;;;;;;1.33;1.20;;;23.00;26.70;;;;;;5052936;28;20243;-49
2021/03/11 06:41:45;;;;;;;5.43;1.87;;;23.00;26.80;;;;;;5051137;28;20209;-45
2021/03/11 06:44:11;;;;;;;2.93;1.73;;;23.00;27.50;;;;;;5051660;28;20607;-47
2021/03/11 06:46:37;;;;;;;1.33;1.20;;;23.00;27.70;;;;;;5051038;28;20211;-49
2021/03/11 06:49:03;;;;;;;3.23;1.60;;;23.00;27.30;;;;;;5051770;28;20200;-47
2021/03/11 06:51:29;;;;;;;1.93;1.43;;;23.10;27.10;;;;;;5051584;28;20587;-46
2021/03/11 06:53:55;;;;;;;2.10;1.40;;;23.10;26.90;;;;;;5048961;28;20785;-49
2021/03/11 06:56:22;;;;;;;3.77;1.40;;;23.10;26.90;;;;;;5050747;28;20238;-49
2021/03/11 06:58:48;;;;;;;2.33;1.43;;;23.10;26.80;;;;;;5052738;28;20212;-45
2021/03/11 07:01:14;;;;;;;3.10;1.30;;;23.10;27.40;;;;;;5051759;28;20201;-55
2021/03/11 07:03:40;;;;;;;1.70;1.43;;;23.10;26.90;;;;;;5051971;28;20505;-48
2021/03/11 07:06:06;;;;;;;2.17;1.53;;;23.10;26.80;;;;;;5051836;28;20671;-49
2021/03/11 07:08:32;;;;;;;3.60;1.60;;;23.10;26.70;;;;;;5048292;28;20216;-42
2021/03/11 07:10:58;;;;;;;2.70;1.47;;;23.10;26.70;;;;;;5051059;28;20197;-48
2021/03/11 07:13:24;;;;;;;3.07;1.40;;;23.20;27.70;;;;;;5050568;28;20646;-44
2021/03/11 07:15:50;;;;;;;3.00;1.40;;;23.20;27.00;;;;;;5051557;28;20234;-45
2021/03/11 07:18:16;;;;;;;4.57;1.80;;;23.10;26.90;;;;;;5051646;28;20201;-45
2021/03/11 07:20:42;;;;;;;4.13;1.80;;;23.20;27.20;;;;;;5049645;28;20667;-50
2021/03/11 07:23:09;;;;;;;4.40;1.70;;;23.10;27.20;;;;;;5038381;28;20208;-50
2021/03/11 07:25:34;;;;;;;3.43;1.50;;;23.10;27.20;;;;;;5045281;28;20713;-48
2021/03/11 07:28:01;;;;;;;1.90;1.30;;;23.10;27.30;;;;;;5051879;28;20204;-46
2021/03/11 07:30:27;;;;;;;2.53;1.87;;;23.00;27.30;;;;;;5051272;28;20208;-45
2021/03/11 07:32:53;;;;;;;4.17;2.40;;;22.80;24.70;;;;;;5049566;28;20209;-47
2021/03/11 07:35:20;;;;;;;4.83;2.13;;;21.50;23.10;;;;;;5046687;28;20223;-69
2021/03/11 07:37:46;;;;;;;4.50;2.20;;;21.30;22.70;;;;;;5051378;28;20227;-47
2021/03/11 07:40:12;;;;;;;2.93;2.00;;;21.40;23.00;;;;;;5051387;28;20209;-46
2021/03/11 07:42:38;;;;;;;3.10;1.83;;;21.80;22.50;;;;;;5050972;28;20211;-50
2021/03/11 07:45:04;;;;;;;3.53;2.03;;;22.20;24.20;;;;;;5050084;28;20310;-49
2021/03/11 07:47:30;;;;;;;3.03;1.73;;;22.30;25.20;;;;;;5050651;28;20216;-50
2021/03/11 07:49:56;;;;;;;2.70;1.50;;;22.50;25.10;;;;;;5051058;28;20211;-53
2021/03/11 07:52:21;;;;;;;1.93;1.43;;;22.60;25.50;;;;;;5050934;28;20226;-47
2021/03/11 07:54:47;;;;;;;3.33;1.50;;;22.70;25.70;;;;;;5049909;28;20224;-44
2021/03/11 07:57:13;;;;;;;2.60;1.53;;;22.80;25.90;;;;;;5049552;28;20683;-50
2021/03/11 07:59:39;;;;;;;2.30;1.60;;;22.80;26.00;;;;;;5041612;28;20262;-45
2021/03/11 08:02:05;;;;;;;1.67;1.50;;;22.90;26.10;;;;;;5046369;28;20205;-46
2021/03/11 08:04:31;;;;;;;3.73;2.03;;;22.90;26.10;;;;;;5049935;28;20688;-50
2021/03/11 08:06:57;;;;;;;2.93;1.43;;;22.90;26.30;;;;;;5047391;28;20291;-45
2021/03/11 08:09:23;;;;;;;1.83;1.30;;;23.00;27.00;;;;;;5049504;28;20202;-50
2021/03/11 08:11:49;;;;;;;3.83;1.70;;;23.00;27.00;;;;;;5050025;28;20729;-48
2021/03/11 08:14:15;;;;;;;2.97;1.70;;;23.10;28.10;;;;;;5048471;28;20261;-47
2021/03/11 08:16:41;;;;;;;2.27;1.40;;;23.10;27.40;;;;;;5050417;28;20228;-49
2021/03/11 08:19:07;;;;;;;2.70;1.93;;;23.00;27.40;;;;;;5046299;28;20579;-49
2021/03/11 08:21:33;;;;;;;2.57;1.47;;;23.00;27.40;;;;;;5045760;28;20215;-45
2021/03/11 08:23:59;;;;;;;2.47;1.67;;;23.00;27.70;;;;;;5048124;28;20229;-50
2021/03/11 08:26:25;;;;;;;2.70;1.60;;;23.10;27.50;;;;;;5047303;28;20219;-49
2021/03/11 08:28:51;;;;;;;3.23;1.50;;;23.10;27.40;;;;;;5049375;28;20208;-45
2021/03/11 08:31:17;;;;;;;3.80;2.27;;;23.10;27.70;;;;;;5052728;28;20676;-47
2021/03/11 08:33:42;;;;;;;2.97;1.40;;;23.10;28.10;;;;;;5046240;28;20220;-48
2021/03/11 08:36:08;;;;;;;3.93;1.60;;;23.10;28.10;;;;;;5047005;28;20327;-48
2021/03/11 08:38:34;;;;;;;3.07;1.77;;;23.20;29.20;;;;;;5047400;28;20247;-48
2021/03/11 08:41:03;;;;;;;3.40;1.60;;;23.20;29.30;;;;;;5049410;28;20646;-46
2021/03/11 08:43:29;;;;;;;2.90;1.50;;;23.20;28.60;;;;;;5050419;28;20229;-47
2021/03/11 08:45:55;;;;;;;2.17;1.47;;;23.10;29.40;;;;;;5046123;28;20209;-42
2021/03/11 08:48:21;;;;;;;2.50;1.50;;;23.10;29.20;;;;;;5049275;28;20204;-48
2021/03/11 08:50:47;;;;;;;1.60;1.47;;;23.10;28.50;;;;;;5047835;28;20197;-51
2021/03/11 08:53:13;;;;;;;6.17;1.70;;;23.10;29.00;;;;;;5048503;28;20235;-46
2021/03/11 08:55:39;;;;;;;1.73;1.33;;;23.10;29.50;;;;;;5048890;28;20224;-42
2021/03/11 08:58:05;;;;;;;2.03;1.43;;;23.20;29.50;;;;;;5048459;28;20205;-49
2021/03/11 09:00:31;;;;;;;3.23;1.30;;;23.20;28.60;;;;;;5050767;28;20714;-47
2021/03/11 09:02:57;;;;;;;4.10;1.67;;;23.20;28.30;;;;;;5048222;28;20204;-49
2021/03/11 09:05:23;;;;;;;2.90;1.33;;;23.20;28.20;;;;;;5043581;28;20225;-45
2021/03/11 09:07:49;;;;;;;1.60;1.30;;;23.20;28.20;;;;;;5048373;28;20208;-45
2021/03/11 09:10:15;;;;;;;3.37;1.63;;;23.20;29.30;;;;;;5049417;28;20206;-46
2021/03/11 09:12:41;;;;;;;3.00;1.50;;;23.20;28.80;;;;;;5049216;28;20221;-47
2021/03/11 09:15:07;;;;;;;1.90;1.27;;;23.20;28.40;;;;;;5049476;28;20236;-53
2021/03/11 09:17:33;;;;;;;2.73;1.43;;;23.20;28.20;;;;;;5048808;28;22272;-49
2021/03/11 09:20:01;;;;;;;2.20;1.57;;;23.20;28.60;;;;;;5047061;28;20213;-45
2021/03/11 09:22:27;;;;;;;2.70;1.50;;;23.20;29.20;;;;;;5048069;28;20203;-43
2021/03/11 09:24:52;;;;;;;1.57;1.30;;;23.20;28.50;;;;;;5045593;28;20596;-45
2021/03/11 09:27:18;;;;;;;2.00;1.40;;;23.20;28.20;;;;;;5045638;28;20212;-43
2021/03/11 09:29:44;;;;;;;2.40;1.60;;;23.20;28.20;;;;;;5049260;28;20197;-43
2021/03/11 09:32:10;;;;;;;2.07;1.53;;;23.20;28.20;;;;;;5047401;28;20201;-46
2021/03/11 09:34:36;;;;;;;1.77;1.60;;;23.20;28.20;;;;;;5048680;28;20221;-46
2021/03/11 09:37:02;;;;;;;2.63;1.40;;;23.30;29.10;;;;;;5047787;28;20641;-43
2021/03/11 09:39:28;;;;;;;2.93;1.40;;;23.20;29.00;;;;;;5048907;28;20220;-45
2021/03/11 09:41:54;;;;;;;4.90;1.60;;;23.20;28.80;;;;;;5049304;28;20201;-41
2021/03/11 09:44:20;;;;;;;2.47;1.40;;;23.20;28.60;;;;;;5041706;28;20241;-50
2021/03/11 09:46:46;;;;;;;3.13;1.80;;;23.20;28.60;;;;;;5034333;28;20226;-47
2021/03/11 09:49:12;;;;;;;2.10;1.63;;;23.20;30.00;;;;;;5050295;28;20572;-47
2021/03/11 09:51:38;;;;;;;3.77;2.00;;;23.20;28.90;;;;;;5050526;28;20210;-46
2021/03/11 09:54:04;;;;;;;2.50;1.70;;;23.20;30.00;;;;;;5052759;28;20253;-46
2021/03/11 09:56:30;;;;;;;2.53;1.33;;;23.20;29.90;;;;;;5052367;28;20232;-50
2021/03/11 09:58:56;;;;;;;2.07;1.57;;;23.20;29.60;;;;;;5051900;28;20245;-49
2021/03/11 10:01:22;;;;;;;3.27;1.70;;;23.20;30.40;;;;;;5052613;28;20205;-47
2021/03/11 10:03:48;;;;;;;2.90;1.83;;;23.20;29.30;;;;;;5051557;28;20707;-49
2021/03/11 10:06:14;;;;;;;1.70;1.60;;;23.20;29.50;;;;;;5051798;28;20204;-49
2021/03/11 10:08:40;;;;;;;2.77;1.50;;;23.20;28.80;;;;;;5047723;28;20212;-47
2021/03/11 10:11:06;;;;;;;1.63;1.40;;;23.20;28.30;;;;;;5043039;28;20205;-52
2021/03/11 10:13:32;;;;;;;3.40;2.33;;;23.30;28.60;;;;;;5050257;28;20240;-51
2021/03/11 10:15:58;;;;;;;1.83;1.37;;;23.30;28.30;;;;;;5051822;28;20229;-45
2021/03/11 10:18:24;;;;;;;1.83;1.73;;;23.30;28.40;;;;;;5052621;28;20204;-53
2021/03/11 10:20:50;;;;;;;1.60;1.50;;;23.30;28.30;;;;;;5051976;28;20608;-51
2021/03/11 10:23:16;;;;;;;3.10;1.70;;;23.30;28.40;;;;;;5051719;28;20232;-51
2021/03/11 10:25:42;;;;;;;5.20;1.97;;;23.30;28.20;;;;;;5050579;28;20208;-53
2021/03/11 10:28:08;;;;;;;5.03;1.70;;;23.20;26.90;;;;;;5052519;28;20579;-51
2021/03/11 10:30:37;;;;;;;3.27;1.80;;;23.20;27.80;;;;;;5051353;28;20199;-53
2021/03/11 10:33:03;;;;;;;2.33;1.70;;;23.30;27.90;;;;;;5052209;28;20655;-50
2021/03/11 10:35:29;;;;;;;2.30;1.60;;;23.20;28.20;;;;;;5052625;28;20701;-53
2021/03/11 10:37:55;;;;;;;1.40;1.30;;;23.30;28.20;;;;;;5050220;28;20205;-49
2021/03/11 10:40:21;;;;;;;2.30;1.20;;;23.30;28.20;;;;;;4992502;28;20221;-51
2021/03/11 10:42:47;;;;;;;2.73;1.27;;;23.30;28.20;;;;;;5044438;28;20197;-49
2021/03/11 10:45:13;;;;;;;4.83;1.57;;;23.30;28.20;;;;;;5046457;28;20206;-49
2021/03/11 10:47:39;;;;;;;1.70;1.40;;;23.30;28.20;;;;;;5045978;28;20209;-54
2021/03/11 10:50:05;;;;;;;4.10;1.40;;;23.30;28.20;;;;;;5048695;28;20205;-53
2021/03/11 10:52:31;;;;;;;1.57;1.30;;;23.30;28.20;;;;;;5045192;28;20212;-45
2021/03/11 10:54:57;;;;;;;2.03;1.30;;;23.30;28.30;;;;;;5055996;28;20216;-51
2021/03/11 10:57:24;;;;;;;1.47;1.20;;;23.30;28.30;;;;;;5052567;28;20720;-50
2021/03/11 10:59:50;;;;;;;2.80;1.30;;;23.30;28.20;;;;;;5049393;28;20224;-44
2021/03/11 11:02:16;;;;;;;1.40;1.30;;;23.30;28.80;;;;;;5047184;28;20658;-47
2021/03/11 11:04:42;;;;;;;1.30;1.20;;;23.30;28.20;;;;;;5051559;28;20225;-44
2021/03/11 11:07:08;;;;;;;1.60;1.47;;;23.30;28.20;;;;;;5047867;28;20201;-49
2021/03/11 11:09:34;;;;;;;1.83;1.33;;;23.30;28.30;;;;;;5051917;28;20530;-47
2021/03/11 11:12:00;;;;;;;2.70;1.40;;;23.40;28.30;;;;;;5052628;28;20211;-47
2021/03/11 11:14:26;;;;;;;1.87;1.10;;;23.30;28.20;;;;;;5051425;28;20225;-46
2021/03/11 11:16:52;;;;;;;1.50;1.10;;;23.30;28.30;;;;;;5048040;28;20643;-49
2021/03/11 11:19:17;;;;;;;1.50;1.20;;;23.40;28.30;;;;;;5051279;28;20240;-46
2021/03/11 11:21:43;;;;;;;1.43;1.10;;;23.40;28.30;;;;;;5049696;28;20216;-46
2021/03/11 11:24:09;;;;;;;1.60;1.40;;;23.40;28.30;;;;;;5051375;28;20283;-51
2021/03/11 11:26:35;;;;;;;2.93;1.20;;;23.40;28.30;;;;;;5050097;28;20212;-51
2021/03/11 11:29:05;;;;;;;4.10;1.63;;;23.40;26.80;;;;;;5047799;28;20205;-50
2021/03/11 11:31:31;;;;;;;2.03;1.30;;;23.30;27.20;;;;;;5049141;28;20206;-51
2021/03/11 11:33:57;;;;;;;1.20;1.10;;;23.30;27.50;;;;;;5045051;28;20595;-48
2021/03/11 11:36:23;;;;;;;3.27;1.27;;;23.40;28.30;;;;;;5046791;28;20664;-49
2021/03/11 11:38:49;;;;;;;3.00;1.20;;;23.40;28.80;;;;;;5049284;28;20213;-47
2021/03/11 11:41:15;;;;;;;3.33;1.33;;;23.40;28.60;;;;;;5050115;28;20204;-48
2021/03/11 11:43:41;;;;;;;4.53;1.50;;;23.40;28.30;;;;;;5049633;28;20225;-49
2021/03/11 11:46:07;;;;;;;4.93;1.53;;;23.40;29.20;;;;;;5049892;28;20208;-44
2021/03/11 11:48:33;;;;;;;3.57;1.20;;;23.40;28.60;;;;;;5047514;28;20672;-51
2021/03/11 11:50:59;;;;;;;2.30;1.10;;;23.40;28.80;;;;;;5047487;28;20213;-47
2021/03/11 11:53:25;;;;;;;1.70;1.30;;;23.40;28.60;;;;;;5051337;28;20225;-47
2021/03/11 11:55:51;;;;;;;1.43;1.10;;;23.50;28.40;;;;;;5051824;28;20596;-48
2021/03/11 11:58:17;;;;;;;2.40;1.10;;;23.50;28.40;;;;;;5050845;28;20277;-54
2021/03/11 12:00:43;;;;;;;3.03;1.20;;;23.50;28.40;;;;;;5047973;28;20209;-51
2021/03/11 12:03:09;;;;;;;1.63;1.10;;;23.50;28.40;;;;;;5048551;28;20229;-49
2021/03/11 12:05:35;;;;;;;2.77;1.80;;;23.50;29.30;;;;;;5050157;28;20208;-53
2021/03/11 12:08:01;;;;;;;4.10;1.10;;;23.50;28.40;;;;;;5048982;28;20260;-47
2021/03/11 12:10:27;;;;;;;1.67;1.13;;;23.40;28.30;;;;;;5049091;28;20213;-46
2021/03/11 12:12:53;;;;;;;1.57;1.10;;;23.40;28.30;;;;;;5063716;23;20217;-52
2021/03/11 12:15:19;;;;;;;1.50;1.17;;;23.30;28.20;;;;;;5049745;28;20315;-47
2021/03/11 12:17:45;;;;;;;2.93;1.60;;;23.30;28.20;;;;;;5048870;28;20208;-51
2021/03/11 12:20:11;;;;;;;2.40;1.50;;;23.30;28.20;;;;;;5049790;28;20689;-47
2021/03/11 12:22:37;;;;;;;4.90;1.57;;;23.20;26.90;;;;;;5048395;28;20216;-48
2021/03/11 12:25:03;;;;;;;2.43;1.17;;;23.20;27.40;;;;;;5049077;28;20209;-51
2021/03/11 12:27:29;;;;;;;2.00;1.30;;;23.20;28.50;;;;;;5050411;28;20202;-50
2021/03/11 12:29:55;;;;;;;1.30;0.90;;;23.30;27.90;;;;;;5049324;28;20197;-48
2021/03/11 12:32:21;;;;;;;2.13;1.10;;;23.30;28.00;;;;;;5049221;28;20268;-51
2021/03/11 12:34:48;;;;;;;2.20;1.20;;;23.20;28.00;;;;;;5050345;28;20201;-49
2021/03/11 12:37:14;;;;;;;1.70;1.10;;;23.30;27.90;;;;;;5049641;28;20235;-52
2021/03/11 12:39:40;;;;;;;2.23;1.23;;;23.30;27.80;;;;;;5050541;28;20267;-47